createdAt,value
2023-04-25T00:00:22.793Z,28.87
2023-04-25T00:01:23.856Z,30.34
2023-04-25T00:02:23.017Z,27.82
2023-04-25T00:03:24.130Z,29.73
2023-04-25T00:04:23.283Z,27.86
2023-04-25T00:05:23.192Z,26.46
2023-04-25T00:06:23.120Z,26.12
2023-04-25T00:07:23.188Z,26.59
2023-04-25T00:08:23.364Z,28.98
2023-04-25T00:09:24.357Z,26.57
2023-04-25T00:10:24.397Z,26.43
2023-04-25T00:11:24.650Z,28.46
2023-04-25T00:12:24.516Z,26.49
2023-04-25T00:13:23.653Z,25.34
2023-04-25T00:14:24.674Z,28.03
2023-04-25T00:15:24.765Z,29.56
2023-04-25T00:16:24.823Z,28.88
2023-04-25T00:17:24.904Z,29.54
2023-04-25T00:18:23.891Z,30.20
2023-04-25T00:19:24.822Z,28.53
2023-04-25T00:20:24.888Z,32.08
2023-04-25T00:21:23.932Z,32.93
2023-04-25T00:22:25.037Z,29.65
2023-04-25T00:23:25.087Z,26.36
2023-04-25T00:24:25.128Z,30.55
2023-04-25T00:25:24.218Z,27.38
2023-04-25T00:26:25.267Z,26.81
2023-04-25T00:27:25.315Z,25.85
2023-04-25T00:28:24.397Z,30.06
2023-04-25T00:29:25.429Z,31.12
2023-04-25T00:30:24.596Z,30.35
2023-04-25T00:31:24.667Z,29.63
2023-04-25T00:32:24.633Z,29.46
2023-04-25T00:33:25.669Z,31.49
2023-04-25T00:34:25.715Z,29.33
2023-04-25T00:35:25.784Z,28.93
2023-04-25T00:36:25.822Z,30.42
2023-04-25T00:37:25.955Z,27.01
2023-04-25T00:38:25.967Z,27.64
2023-04-25T00:39:26.061Z,28.39
2023-04-25T00:40:26.145Z,26.52
2023-04-25T00:41:25.139Z,28.36
2023-04-25T00:42:25.262Z,25.00
2023-04-25T00:43:25.427Z,26.96
2023-04-25T00:44:25.571Z,29.38
2023-04-25T00:45:26.457Z,27.35
2023-04-25T00:46:25.477Z,25.88
2023-04-25T00:47:25.558Z,30.11
2023-04-25T00:48:26.691Z,27.63
2023-04-25T00:49:26.641Z,25.95
2023-04-25T00:50:25.655Z,29.47
2023-04-25T00:51:26.737Z,25.68
2023-04-25T00:52:26.865Z,25.00
2023-04-25T00:53:26.865Z,30.84
2023-04-25T00:54:25.914Z,28.01
2023-04-25T00:55:26.981Z,25.00
2023-04-25T00:56:26.104Z,30.49
2023-04-25T00:57:27.116Z,30.72
2023-04-25T00:58:26.227Z,28.79
2023-04-25T00:59:26.267Z,27.49
2023-04-25T01:00:27.402Z,29.03
2023-04-25T01:01:26.511Z,31.85
2023-04-25T01:02:26.495Z,26.93
2023-04-25T01:03:27.716Z,28.35
2023-04-25T01:04:26.658Z,27.12
2023-04-25T01:05:27.695Z,28.40
2023-04-25T01:06:27.701Z,28.11
2023-04-25T01:07:27.845Z,31.16
2023-04-25T01:08:27.881Z,29.43
2023-04-25T01:09:27.101Z,27.20
2023-04-25T01:10:26.966Z,30.11
2023-04-25T01:11:27.062Z,25.18
2023-04-25T01:12:28.213Z,25.36
2023-04-25T01:13:27.143Z,27.83
2023-04-25T01:14:27.152Z,28.83
2023-04-25T01:15:27.204Z,28.74
2023-04-25T01:16:27.333Z,27.97
2023-04-25T01:17:27.418Z,29.79
2023-04-25T01:18:28.421Z,25.00
2023-04-25T01:19:28.563Z,32.66
2023-04-25T01:20:28.508Z,33.36
2023-04-25T01:21:27.512Z,28.75
2023-04-25T01:22:28.561Z,30.19
2023-04-25T01:23:28.633Z,29.65
2023-04-25T01:24:27.760Z,30.02
2023-04-25T01:25:28.736Z,27.72
2023-04-25T01:26:27.839Z,27.47
2023-04-25T01:27:27.903Z,27.13
2023-04-25T01:28:28.906Z,31.01
2023-04-25T01:29:28.962Z,27.54
2023-04-25T01:30:28.078Z,26.24
2023-04-25T01:31:29.189Z,30.50
2023-04-25T01:32:29.190Z,25.40
2023-04-25T01:33:28.171Z,30.76
2023-04-25T01:34:29.627Z,25.24
2023-04-25T01:35:28.285Z,28.38
2023-04-25T01:36:29.297Z,29.52
2023-04-25T01:37:28.418Z,26.44
2023-04-25T01:38:28.413Z,29.71
2023-04-25T01:39:29.444Z,28.06
2023-04-25T01:40:28.498Z,28.69
2023-04-25T01:41:29.582Z,29.59
2023-04-25T01:42:29.576Z,29.12
2023-04-25T01:43:28.798Z,30.92
2023-04-25T01:44:28.692Z,28.99
2023-04-25T01:45:29.735Z,30.23
2023-04-25T01:46:28.894Z,28.59
2023-04-25T01:48:28.903Z,25.93
2023-04-25T01:49:29.981Z,27.55
2023-04-25T01:50:29.074Z,29.22
2023-04-25T01:51:29.126Z,27.02
2023-04-25T01:52:30.175Z,29.53
2023-04-25T01:53:29.310Z,27.76
2023-04-25T01:54:29.283Z,27.50
2023-04-25T01:55:29.285Z,27.53
2023-04-25T01:56:30.530Z,25.00
2023-04-25T01:57:29.423Z,26.96
2023-04-25T01:58:30.611Z,27.37
2023-04-25T01:59:30.671Z,29.89
2023-04-25T02:00:30.672Z,30.24
2023-04-25T02:01:30.878Z,25.25
2023-04-25T02:02:29.969Z,31.17
2023-04-25T02:03:31.039Z,29.59
2023-04-25T02:04:30.074Z,25.88
2023-04-25T02:05:29.908Z,28.01
2023-04-25T02:06:30.007Z,30.32
2023-04-25T02:07:31.060Z,29.68
2023-04-25T02:08:31.131Z,26.21
2023-04-25T02:09:31.142Z,28.06
2023-04-25T02:10:30.185Z,28.09
2023-04-25T02:11:30.266Z,31.74
2023-04-25T02:12:30.295Z,28.18
2023-04-25T02:13:31.354Z,28.82
2023-04-25T02:14:30.455Z,30.16
2023-04-25T02:15:31.500Z,27.31
2023-04-25T02:16:30.626Z,30.36
2023-04-25T02:17:30.544Z,31.91
2023-04-25T02:18:30.608Z,25.00
2023-04-25T02:19:30.650Z,31.75
2023-04-25T02:20:31.679Z,29.60
2023-04-25T02:21:31.738Z,32.24
2023-04-25T02:22:31.849Z,31.82
2023-04-25T02:23:30.874Z,26.53
2023-04-25T02:24:31.087Z,28.61
2023-04-25T02:25:32.078Z,26.61
2023-04-25T02:26:31.194Z,30.63
2023-04-25T02:27:32.104Z,27.02
2023-04-25T02:28:32.150Z,27.25
2023-04-25T02:29:32.305Z,32.05
2023-04-25T02:30:32.341Z,29.86
2023-04-25T02:31:32.432Z,29.54
2023-04-25T02:32:32.551Z,28.79
2023-04-25T02:33:32.522Z,29.31
2023-04-25T02:34:31.560Z,30.18
2023-04-25T02:35:32.638Z,30.76
2023-04-25T02:36:32.694Z,28.10
2023-04-25T02:37:32.781Z,29.04
2023-04-25T02:38:32.815Z,26.70
2023-04-25T02:39:32.867Z,28.84
2023-04-25T02:40:32.895Z,28.32
2023-04-25T02:41:32.960Z,27.26
2023-04-25T02:42:33.143Z,28.05
2023-04-25T02:43:32.069Z,29.71
2023-04-25T02:44:33.087Z,29.59
2023-04-25T02:45:33.207Z,28.33
2023-04-25T02:47:33.332Z,28.78
2023-04-25T02:48:33.164Z,29.18
2023-04-25T02:49:33.236Z,30.12
2023-04-25T02:50:33.188Z,29.73
2023-04-25T02:51:32.130Z,29.63
2023-04-25T02:52:33.105Z,29.67
2023-04-25T02:53:32.106Z,26.63
2023-04-25T02:54:32.090Z,28.60
2023-04-25T02:55:33.203Z,30.02
2023-04-25T02:56:33.107Z,27.64
2023-04-25T02:57:32.199Z,28.46
2023-04-25T02:58:33.088Z,29.25
2023-04-25T02:59:33.076Z,30.80
2023-04-25T03:00:32.157Z,30.26
2023-04-25T03:01:33.117Z,27.08
2023-04-25T03:02:32.208Z,29.64
2023-04-25T03:03:33.074Z,29.23
2023-04-25T03:04:32.050Z,29.65
2023-04-25T03:05:33.077Z,29.95
2023-04-25T03:06:33.010Z,27.27
2023-04-25T03:07:31.995Z,27.59
2023-04-25T03:08:33.003Z,30.58
2023-04-25T03:09:32.996Z,25.00
2023-04-25T03:10:31.999Z,30.92
2023-04-25T03:11:33.107Z,29.39
2023-04-25T03:12:32.112Z,25.43
2023-04-25T03:13:32.197Z,29.24
2023-04-25T03:14:33.198Z,25.76
2023-04-25T03:15:33.381Z,26.10
2023-04-25T03:16:33.366Z,30.74
2023-04-25T03:17:33.438Z,31.12
2023-04-25T03:18:33.406Z,28.39
2023-04-25T03:19:33.468Z,29.52
2023-04-25T03:20:33.508Z,29.86
2023-04-25T03:21:33.589Z,27.58
2023-04-25T03:22:33.605Z,32.43
2023-04-25T03:23:32.604Z,31.29
2023-04-25T03:24:32.664Z,29.26
2023-04-25T03:25:32.654Z,30.94
2023-04-25T03:26:32.672Z,30.41
2023-04-25T03:27:33.713Z,30.52
2023-04-25T03:28:33.748Z,28.27
2023-04-25T03:29:33.731Z,27.39
2023-04-25T03:30:33.775Z,30.97
2023-04-25T03:31:33.871Z,30.03
2023-04-25T03:32:32.892Z,32.39
2023-04-25T03:33:32.889Z,30.05
2023-04-25T03:34:32.963Z,27.32
2023-04-25T03:35:33.005Z,32.13
2023-04-25T03:36:34.181Z,31.98
2023-04-25T03:37:34.118Z,29.10
2023-04-25T03:38:34.220Z,29.45
2023-04-25T03:39:34.240Z,26.30
2023-04-25T03:40:34.334Z,28.73
2023-04-25T03:41:34.360Z,26.96
2023-04-25T03:42:34.453Z,27.48
2023-04-25T03:43:34.467Z,25.73
2023-04-25T03:44:33.466Z,25.23
2023-04-25T03:45:33.624Z,28.40
2023-04-25T03:46:33.615Z,26.39
2023-04-25T03:47:34.622Z,29.68
2023-04-25T03:48:34.636Z,27.29
2023-04-25T03:49:33.652Z,26.97
2023-04-25T03:50:34.742Z,27.56
2023-04-25T03:51:33.676Z,26.11
2023-04-25T03:52:34.691Z,27.22
2023-04-25T03:53:34.789Z,27.60
2023-04-25T03:54:34.779Z,29.54
2023-04-25T03:55:34.755Z,28.03
2023-04-25T03:56:33.739Z,28.98
2023-04-25T03:57:33.725Z,27.99
2023-04-25T03:58:34.779Z,29.84
2023-04-25T03:59:34.826Z,28.36
2023-04-25T04:00:34.808Z,29.15
2023-04-25T04:01:34.735Z,30.47
2023-04-25T04:02:35.009Z,29.69
2023-04-25T04:03:34.912Z,27.54
2023-04-25T04:04:35.071Z,27.71
2023-04-25T04:05:34.970Z,30.12
2023-04-25T04:06:34.827Z,30.98
2023-04-25T04:07:34.799Z,28.11
2023-04-25T04:08:33.760Z,30.73
2023-04-25T04:09:34.790Z,29.95
2023-04-25T04:10:33.916Z,29.98
2023-04-25T04:11:34.810Z,26.20
2023-04-25T04:12:34.910Z,28.67
2023-04-25T04:13:34.830Z,30.49
2023-04-25T04:14:34.844Z,29.06
2023-04-25T04:15:34.955Z,25.00
2023-04-25T04:16:34.625Z,26.65
2023-04-25T04:17:33.904Z,28.35
2023-04-25T04:18:33.906Z,30.58
2023-04-25T04:19:34.898Z,30.81
2023-04-25T04:20:33.960Z,27.66
2023-04-25T04:21:33.954Z,28.08
2023-04-25T04:22:34.940Z,26.52
2023-04-25T04:23:34.954Z,33.83
2023-04-25T04:24:33.973Z,27.44
2023-04-25T04:25:35.253Z,28.48
2023-04-25T04:26:34.032Z,25.94
2023-04-25T04:27:35.036Z,29.52
2023-04-25T04:28:34.042Z,32.28
2023-04-25T04:29:35.086Z,27.75
2023-04-25T04:30:35.035Z,28.11
2023-04-25T04:31:35.166Z,26.52
2023-04-25T04:32:35.013Z,28.90
2023-04-25T04:33:34.101Z,25.64
2023-04-25T04:34:35.035Z,31.27
2023-04-25T04:35:34.041Z,29.18
2023-04-25T04:36:34.003Z,28.63
2023-04-25T04:37:35.038Z,25.12
2023-04-25T04:38:34.065Z,30.33
2023-04-25T04:39:34.076Z,30.47
2023-04-25T04:40:34.103Z,28.18
2023-04-25T04:41:34.150Z,29.43
2023-04-25T04:42:34.140Z,27.67
2023-04-25T04:43:34.196Z,32.05
2023-04-25T04:44:34.185Z,28.75
2023-04-25T04:45:35.218Z,27.41
2023-04-25T04:46:35.322Z,29.91
2023-04-25T04:47:35.393Z,28.97
2023-04-25T04:48:35.448Z,28.66
2023-04-25T04:49:35.484Z,28.09
2023-04-25T04:50:35.451Z,29.53
2023-04-25T04:51:35.548Z,29.77
2023-04-25T04:52:35.602Z,28.74
2023-04-25T04:53:35.672Z,27.41
2023-04-25T04:54:35.690Z,26.77
2023-04-25T04:55:35.751Z,25.52
2023-04-25T04:56:35.851Z,28.65
2023-04-25T04:57:35.941Z,27.47
2023-04-25T04:58:35.922Z,31.52
2023-04-25T04:59:36.026Z,28.10
2023-04-25T05:00:36.126Z,26.64
2023-04-25T05:01:36.134Z,27.37
2023-04-25T05:02:35.437Z,26.28
2023-04-25T05:03:36.376Z,28.33
2023-04-25T05:04:36.408Z,28.07
2023-04-25T05:05:36.406Z,29.09
2023-04-25T05:06:35.446Z,30.36
2023-04-25T05:07:36.527Z,32.97
2023-04-25T05:08:36.546Z,30.17
2023-04-25T05:09:35.724Z,28.08
2023-04-25T05:10:36.684Z,28.65
2023-04-25T05:11:35.727Z,31.25
2023-04-25T05:12:36.974Z,29.80
2023-04-25T05:13:36.861Z,28.11
2023-04-25T05:14:36.892Z,31.56
2023-04-25T05:15:36.947Z,27.99
2023-04-25T05:16:37.088Z,31.90
2023-04-25T05:17:37.154Z,33.53
2023-04-25T05:18:40.189Z,33.89
2023-04-25T05:19:38.018Z,34.09
2023-04-25T05:20:37.446Z,34.14
2023-04-25T05:22:55.195Z,25.00
2023-04-25T05:23:56.176Z,25.00
2023-04-25T05:24:56.413Z,25.00
2023-04-25T05:25:55.154Z,25.00
2023-04-25T05:26:56.164Z,25.00
2023-04-25T05:27:55.183Z,30.92
2023-04-25T05:28:56.146Z,29.18
2023-04-25T05:29:55.114Z,34.07
2023-04-25T05:30:56.112Z,32.15
2023-04-25T05:31:56.155Z,26.58
2023-04-25T05:32:56.138Z,30.60
2023-04-25T05:33:56.128Z,34.65
2023-04-25T05:34:56.112Z,34.34
2023-04-25T05:35:55.083Z,31.82
2023-04-25T05:36:55.080Z,36.18
2023-04-25T05:37:56.109Z,36.96
2023-04-25T05:38:56.051Z,35.01
2023-04-25T05:39:56.062Z,38.14
2023-04-25T05:40:55.033Z,38.75
2023-04-25T05:41:56.036Z,43.32
2023-04-25T05:42:56.028Z,49.24
2023-04-25T05:43:57.942Z,53.19
2023-04-25T05:44:56.021Z,61.42
2023-04-25T05:45:55.069Z,65.18
2023-04-25T05:46:55.006Z,65.89
2023-04-25T05:47:55.033Z,71.65
2023-04-25T05:48:55.977Z,68.50
2023-04-25T05:49:55.999Z,70.67
2023-04-25T05:50:55.980Z,75.28
2023-04-25T05:51:55.991Z,77.39
2023-04-25T05:52:54.966Z,75.23
2023-04-25T05:53:55.966Z,76.73
2023-04-25T05:54:55.953Z,81.71
2023-04-25T05:55:55.959Z,78.96
2023-04-25T05:56:55.961Z,89.73
2023-04-25T05:57:55.952Z,83.81
2023-04-25T05:58:55.920Z,85.65
2023-04-25T05:59:55.919Z,83.24
2023-04-25T06:00:54.935Z,92.68
2023-04-25T06:01:56.418Z,97.03
2023-04-25T06:02:56.047Z,100.87
2023-04-25T06:03:56.329Z,104.32
2023-04-25T06:04:56.094Z,109.99
2023-04-25T06:05:55.968Z,115.15
2023-04-25T06:06:54.875Z,110.37
2023-04-25T06:07:55.872Z,125.77
2023-04-25T06:08:54.850Z,134.16
2023-04-25T06:09:55.844Z,137.96
2023-04-25T06:10:54.872Z,145.69
2023-04-25T06:11:55.841Z,142.31
2023-04-25T06:12:55.880Z,153.75
2023-04-25T06:13:55.823Z,164.17
2023-04-25T06:14:55.801Z,155.11
2023-04-25T06:15:55.898Z,156.34
2023-04-25T06:16:54.845Z,163.27
2023-04-25T06:17:55.904Z,160.40
2023-04-25T06:18:55.788Z,165.02
2023-04-25T06:19:55.788Z,164.75
2023-04-25T06:20:54.795Z,160.35
2023-04-25T06:21:55.847Z,161.25
2023-04-25T06:22:55.750Z,166.57
2023-04-25T06:23:55.738Z,160.82
2023-04-25T06:24:55.738Z,169.92
2023-04-25T06:25:54.748Z,167.00
2023-04-25T06:26:55.739Z,156.59
2023-04-25T06:27:54.715Z,156.53
2023-04-25T06:28:55.719Z,164.76
2023-04-25T06:29:54.707Z,159.11
2023-04-25T06:30:55.724Z,167.52
2023-04-25T06:31:55.701Z,166.98
2023-04-25T06:32:54.711Z,166.29
2023-04-25T06:33:54.688Z,169.32
2023-04-25T06:34:55.724Z,172.58
2023-04-25T06:35:54.705Z,183.82
2023-04-25T06:36:55.691Z,193.51
2023-04-25T06:37:55.753Z,200.71
2023-04-25T06:38:54.740Z,203.78
2023-04-25T06:39:55.785Z,205.86
2023-04-25T06:40:55.863Z,206.58
2023-04-25T06:41:55.918Z,207.90
2023-04-25T06:42:54.941Z,213.71
2023-04-25T06:43:54.994Z,218.38
2023-04-25T06:44:56.048Z,221.55
2023-04-25T06:45:55.083Z,225.50
2023-04-25T06:46:56.203Z,232.50
2023-04-25T06:47:56.244Z,235.51
2023-04-25T06:48:55.228Z,239.47
2023-04-25T06:49:56.289Z,245.07
2023-04-25T06:50:55.331Z,248.98
2023-04-25T06:51:55.431Z,248.16
2023-04-25T06:52:56.385Z,248.74
2023-04-25T06:53:56.449Z,248.99
2023-04-25T06:54:55.459Z,248.66
2023-04-25T06:55:55.519Z,226.64
2023-04-25T06:56:56.905Z,227.88
2023-04-25T06:57:55.629Z,237.89
2023-04-25T06:58:55.691Z,237.21
2023-04-25T06:59:57.334Z,236.19
2023-04-25T07:00:56.807Z,233.70
2023-04-25T07:01:56.901Z,228.54
2023-04-25T07:02:56.023Z,222.81
2023-04-25T07:03:57.116Z,217.37
2023-04-25T07:04:56.199Z,216.60
2023-04-25T07:05:56.075Z,212.85
2023-04-25T07:06:57.063Z,197.38
2023-04-25T07:07:57.071Z,179.31
2023-04-25T07:08:57.051Z,167.38
2023-04-25T07:09:57.071Z,152.41
2023-04-25T07:10:57.048Z,158.04
2023-04-25T07:11:56.072Z,137.62
2023-04-25T07:12:57.056Z,133.42
2023-04-25T07:13:57.049Z,120.66
2023-04-25T07:14:57.058Z,105.11
2023-04-25T07:15:57.418Z,97.69
2023-04-25T07:16:56.183Z,84.51
2023-04-25T07:17:57.092Z,77.12
2023-04-25T07:18:56.104Z,67.28
2023-04-25T07:19:57.081Z,54.62
2023-04-25T07:20:56.091Z,46.04
2023-04-25T07:21:56.123Z,41.38
2023-04-25T07:22:56.139Z,31.35
2023-04-25T07:23:57.133Z,38.43
2023-04-25T07:24:57.168Z,40.43
2023-04-25T07:25:57.202Z,32.87
2023-04-25T07:26:57.233Z,28.05
2023-04-25T07:27:57.251Z,25.00
2023-04-25T07:28:57.247Z,28.61
2023-04-25T07:29:57.279Z,24.91
2023-04-25T07:30:57.326Z,32.86
2023-04-25T07:31:57.349Z,25.17
2023-04-25T07:32:57.364Z,34.12
2023-04-25T07:33:56.356Z,28.42
2023-04-25T07:34:57.366Z,28.27
2023-04-25T07:35:57.372Z,36.42
2023-04-25T07:36:57.416Z,28.71
2023-04-25T07:37:57.420Z,25.15
2023-04-25T07:38:57.451Z,30.91
2023-04-25T07:39:57.485Z,36.85
2023-04-25T07:40:57.504Z,38.18
2023-04-25T07:41:57.538Z,27.41
2023-04-25T07:42:57.540Z,30.17
2023-04-25T07:43:57.560Z,32.13
2023-04-25T07:44:57.570Z,29.82
2023-04-25T07:45:56.675Z,30.64
2023-04-25T07:46:57.635Z,23.70
2023-04-25T07:47:58.001Z,30.30
2023-04-25T07:48:56.685Z,0.00
2023-04-25T07:49:57.714Z,0.00
2023-04-25T07:50:57.788Z,0.00
2023-04-25T07:51:56.839Z,0.00
2023-04-25T07:52:56.922Z,26.56
2023-04-25T07:53:57.903Z,37.04
2023-04-25T07:54:57.879Z,49.86
2023-04-25T07:55:57.912Z,58.45
2023-04-25T07:56:56.957Z,70.63
2023-04-25T07:57:58.040Z,78.11
2023-04-25T07:58:57.074Z,85.45
2023-04-25T07:59:57.136Z,89.36
2023-04-25T08:00:57.182Z,95.47
2023-04-25T08:01:57.215Z,100.11
2023-04-25T08:02:58.367Z,104.74
2023-04-25T08:03:58.557Z,115.49
2023-04-25T08:04:57.548Z,121.30
2023-04-25T08:05:57.436Z,122.83
2023-04-25T08:06:57.309Z,126.87
2023-04-25T08:07:58.329Z,132.38
2023-04-25T08:08:58.346Z,139.88
2023-04-25T08:09:57.338Z,143.27
2023-04-25T08:10:58.337Z,147.15
2023-04-25T08:11:58.326Z,149.68
2023-04-25T08:12:58.342Z,153.57
2023-04-25T08:13:58.365Z,166.74
2023-04-25T08:14:58.379Z,170.04
2023-04-25T08:15:58.431Z,171.11
2023-04-25T08:16:58.486Z,174.85
2023-04-25T08:17:58.578Z,179.73
2023-04-25T08:18:58.624Z,182.19
2023-04-25T08:19:58.662Z,187.68
2023-04-25T08:20:58.733Z,190.83
2023-04-25T08:21:58.791Z,192.88
2023-04-25T08:22:58.870Z,195.37
2023-04-25T08:23:58.925Z,195.87
2023-04-25T08:24:58.984Z,198.57
2023-04-25T08:25:58.045Z,199.23
2023-04-25T08:26:58.115Z,202.55
2023-04-25T08:27:58.190Z,202.84
2023-04-25T08:28:59.190Z,204.56
2023-04-25T08:29:59.300Z,204.41
2023-04-25T08:30:58.314Z,207.94
2023-04-25T08:31:59.344Z,212.80
2023-04-25T08:32:59.439Z,215.07
2023-04-25T08:33:59.433Z,216.21
2023-04-25T08:34:58.501Z,219.15
2023-04-25T08:35:58.567Z,221.80
2023-04-25T08:36:58.583Z,221.00
2023-04-25T08:37:58.642Z,228.17
2023-04-25T08:38:59.669Z,228.26
2023-04-25T08:39:59.734Z,234.12
2023-04-25T08:40:59.809Z,232.72
2023-04-25T08:41:59.810Z,237.94
2023-04-25T08:42:59.961Z,238.77
2023-04-25T08:43:59.884Z,239.59
2023-04-25T08:44:59.907Z,240.38
2023-04-25T08:45:58.953Z,240.64
2023-04-25T08:47:00.045Z,241.98
2023-04-25T08:47:59.030Z,245.22
2023-04-25T08:49:00.061Z,243.85
2023-04-25T08:49:59.165Z,244.54
2023-04-25T08:51:00.200Z,244.12
2023-04-25T08:51:59.316Z,245.75
2023-04-25T08:53:00.547Z,246.60
2023-04-25T08:54:04.933Z,196.43
2023-04-25T08:55:00.361Z,125.56
2023-04-25T08:56:00.319Z,81.99
2023-04-25T08:56:59.303Z,76.44
2023-04-25T08:58:00.559Z,42.23
2023-04-25T08:58:59.304Z,5.91
2023-04-25T08:59:59.284Z,31.01
2023-04-25T09:00:59.332Z,49.27
2023-04-25T09:01:59.383Z,72.06
2023-04-25T09:03:00.385Z,87.07
2023-04-25T09:04:00.409Z,99.47
2023-04-25T09:04:59.256Z,113.20
2023-04-25T09:06:00.238Z,125.28
2023-04-25T09:06:59.241Z,131.67
2023-04-25T09:07:59.230Z,142.76
2023-04-25T09:09:00.259Z,143.53
2023-04-25T09:09:59.222Z,148.71
2023-04-25T09:11:00.381Z,154.61
2023-04-25T09:11:59.206Z,157.87
2023-04-25T09:13:00.214Z,160.04
2023-04-25T09:14:00.214Z,162.67
2023-04-25T09:15:00.187Z,165.83
2023-04-25T09:16:00.253Z,167.59
2023-04-25T09:17:00.357Z,164.64
2023-04-25T09:17:59.235Z,163.36
2023-04-25T09:19:00.162Z,159.79
2023-04-25T09:20:00.167Z,160.57
2023-04-25T09:21:02.049Z,159.80
2023-04-25T09:22:00.191Z,159.98
2023-04-25T09:23:00.157Z,160.64
2023-04-25T09:24:00.137Z,158.88
2023-04-25T09:25:00.176Z,161.85
2023-04-25T09:26:00.127Z,164.30
2023-04-25T09:27:00.135Z,163.94
2023-04-25T09:28:00.114Z,163.28
2023-04-25T09:29:00.130Z,160.47
2023-04-25T09:30:00.093Z,157.83
2023-04-25T09:30:59.098Z,155.52
2023-04-25T09:32:00.174Z,156.18
2023-04-25T09:33:00.099Z,155.62
2023-04-25T09:34:00.273Z,157.86
2023-04-25T09:35:00.043Z,158.55
2023-04-25T09:36:00.066Z,157.82
2023-04-25T09:37:00.017Z,154.41
2023-04-25T09:38:00.029Z,150.60
2023-04-25T09:39:00.034Z,146.36
2023-04-25T09:40:00.001Z,151.98
2023-04-25T09:40:59.020Z,153.00
2023-04-25T09:41:58.979Z,155.54
2023-04-25T09:42:59.988Z,153.95
2023-04-25T09:43:59.159Z,150.70
2023-04-25T09:44:58.957Z,152.63
2023-04-25T09:45:59.308Z,148.51
2023-04-25T09:47:00.004Z,116.48
2023-04-25T09:48:00.012Z,96.58
2023-04-25T09:48:59.920Z,90.44
2023-04-25T09:50:00.655Z,51.67
2023-04-25T09:50:59.931Z,29.37
2023-04-25T09:52:00.187Z,26.39
2023-04-25T09:52:59.964Z,4.30
2023-04-25T09:53:59.936Z,16.75
2023-04-25T09:54:59.915Z,40.68
2023-04-25T09:55:59.968Z,62.55
2023-04-25T09:56:59.982Z,68.57
2023-04-25T09:58:00.110Z,73.81
2023-04-25T09:59:00.692Z,81.82
2023-04-25T10:00:00.254Z,91.93
2023-04-25T10:00:59.122Z,101.19
2023-04-25T10:01:59.135Z,111.24
2023-04-25T10:03:00.255Z,120.28
2023-04-25T10:03:59.458Z,127.02
2023-04-25T10:04:59.282Z,134.43
2023-04-25T10:06:00.374Z,141.03
2023-04-25T10:07:01.762Z,146.21
2023-04-25T10:08:00.523Z,151.84
2023-04-25T10:08:59.993Z,156.12
2023-04-25T10:09:59.483Z,160.78
2023-04-25T10:11:00.624Z,166.42
2023-04-25T10:11:59.467Z,171.25
2023-04-25T10:13:03.201Z,176.70
2023-04-25T10:13:59.555Z,182.94
2023-04-25T10:15:00.474Z,186.15
2023-04-25T10:16:00.533Z,188.59
2023-04-25T10:16:59.593Z,193.17
2023-04-25T10:18:00.450Z,199.15
2023-04-25T10:19:02.356Z,201.32
2023-04-25T10:20:00.453Z,201.52
2023-04-25T10:21:00.588Z,202.78
2023-04-25T10:22:00.689Z,206.10
2023-04-25T10:23:00.720Z,214.53
2023-04-25T10:23:59.550Z,226.61
2023-04-25T10:25:00.464Z,231.28
2023-04-25T10:26:01.273Z,234.03
2023-04-25T10:26:59.383Z,239.14
2023-04-25T10:28:00.505Z,242.32
2023-04-25T10:28:59.524Z,244.04
2023-04-25T10:30:00.469Z,249.32
2023-04-25T10:31:01.081Z,248.19
2023-04-25T10:32:00.686Z,250.00
2023-04-25T10:33:00.704Z,250.00
2023-04-25T10:33:59.626Z,250.00
2023-04-25T10:35:00.763Z,250.00
2023-04-25T10:36:02.302Z,250.00
2023-04-25T10:37:01.479Z,248.40
2023-04-25T10:38:00.252Z,248.65
2023-04-25T10:39:00.841Z,249.38
2023-04-25T10:39:59.568Z,251.58
2023-04-25T10:41:01.089Z,254.81
2023-04-25T10:41:59.538Z,260.23
2023-04-25T10:43:00.802Z,249.68
2023-04-25T10:44:01.138Z,249.20
2023-04-25T10:44:59.524Z,250.00
2023-04-25T10:45:59.513Z,249.38
2023-04-25T10:46:59.558Z,249.19
2023-04-25T10:48:00.688Z,250.00
2023-04-25T10:48:59.730Z,249.20
2023-04-25T10:50:00.672Z,250.00
2023-04-25T10:51:00.547Z,250.00
2023-04-25T10:52:00.593Z,249.61
2023-04-25T10:53:00.635Z,248.60
2023-04-25T10:54:00.723Z,249.74
2023-04-25T10:54:59.716Z,248.21
2023-04-25T10:56:00.736Z,249.13
2023-04-25T10:56:59.717Z,248.21
2023-04-25T10:58:00.748Z,248.72
2023-04-25T10:58:59.924Z,248.26
2023-04-25T11:00:00.710Z,247.46
2023-04-25T11:00:59.724Z,248.20
2023-04-25T11:01:59.877Z,246.51
2023-04-25T11:02:59.903Z,247.48
2023-04-25T11:04:00.111Z,247.27
2023-04-25T11:05:00.738Z,247.39
2023-04-25T11:06:00.750Z,247.11
2023-04-25T11:08:07.146Z,246.81
2023-04-25T11:09:00.768Z,246.89
2023-04-25T11:10:00.823Z,246.87
2023-04-25T11:10:59.792Z,245.45
2023-04-25T11:12:00.758Z,244.61
2023-04-25T11:13:00.743Z,245.94
2023-04-25T11:13:59.743Z,245.83
2023-04-25T11:15:00.762Z,244.51
2023-04-25T11:16:07.483Z,244.29
2023-04-25T11:17:01.320Z,244.30
2023-04-25T11:18:00.775Z,239.90
2023-04-25T11:19:00.709Z,219.47
2023-04-25T11:19:59.717Z,203.90
2023-04-25T11:20:59.726Z,195.11
2023-04-25T11:22:00.689Z,184.98
2023-04-25T11:23:00.699Z,175.89
2023-04-25T11:23:59.679Z,159.89
2023-04-25T11:24:59.662Z,154.89
2023-04-25T11:26:00.797Z,157.76
2023-04-25T11:26:59.669Z,162.08
2023-04-25T11:27:59.671Z,151.00
2023-04-25T11:28:59.662Z,123.43
2023-04-25T11:30:00.607Z,126.34
2023-04-25T11:31:00.622Z,109.82
2023-04-25T11:31:59.737Z,85.99
2023-04-25T11:32:59.693Z,73.55
2023-04-25T11:33:59.621Z,80.80
2023-04-25T11:35:00.602Z,65.50
2023-04-25T11:36:00.617Z,72.05
2023-04-25T11:37:00.665Z,49.93
2023-04-25T11:38:00.702Z,75.93
2023-04-25T11:39:01.153Z,90.17
2023-04-25T11:39:59.796Z,62.89
2023-04-25T11:41:01.071Z,59.25
2023-04-25T11:42:01.227Z,59.14
2023-04-25T11:43:00.895Z,37.46
2023-04-25T11:43:59.932Z,23.47
2023-04-25T11:44:59.988Z,36.40
2023-04-25T11:46:00.022Z,25.00
2023-04-25T11:47:01.093Z,38.78
2023-04-25T11:48:00.211Z,60.92
2023-04-25T11:49:01.144Z,65.32
2023-04-25T11:50:01.160Z,72.33
2023-04-25T11:51:01.197Z,58.28
2023-04-25T11:52:00.250Z,56.97
2023-04-25T11:53:00.349Z,64.23
2023-04-25T11:54:00.340Z,63.17
2023-04-25T11:55:00.345Z,67.97
2023-04-25T11:56:00.386Z,67.35
2023-04-25T11:57:01.435Z,66.31
2023-04-25T11:58:00.449Z,67.78
2023-04-25T11:59:00.596Z,70.00
2023-04-25T12:00:01.505Z,65.35
2023-04-25T12:01:00.587Z,65.14
2023-04-25T12:02:01.632Z,65.71
2023-04-25T12:03:00.798Z,68.54
2023-04-25T12:04:00.856Z,62.56
2023-04-25T12:05:15.939Z,70.99
2023-04-25T12:06:01.861Z,71.02
2023-04-25T12:07:00.768Z,71.10
2023-04-25T12:08:01.694Z,70.69
2023-04-25T12:09:01.690Z,69.68
2023-04-25T12:10:00.694Z,69.21
2023-04-25T12:11:01.693Z,65.61
2023-04-25T12:12:01.693Z,65.92
2023-04-25T12:13:00.650Z,64.34
2023-04-25T12:14:00.704Z,61.83
2023-04-25T12:15:01.641Z,56.54
2023-04-25T12:16:01.691Z,58.76
2023-04-25T12:17:01.633Z,56.08
2023-04-25T12:18:01.668Z,46.31
2023-04-25T12:19:01.624Z,49.92
2023-04-25T12:20:00.621Z,43.23
2023-04-25T12:21:01.614Z,48.45
2023-04-25T12:22:01.594Z,58.02
2023-04-25T12:23:00.592Z,58.51
2023-04-25T12:24:00.574Z,62.67
2023-04-25T12:25:00.569Z,65.80
2023-04-25T12:26:01.568Z,67.63
2023-04-25T12:27:00.572Z,66.89
2023-04-25T12:28:01.572Z,66.75
2023-04-25T12:29:01.582Z,53.30
2023-04-25T12:30:01.602Z,29.22
2023-04-25T12:31:01.614Z,0.00
2023-04-25T12:32:01.549Z,0.00
2023-04-25T12:33:00.576Z,4.05
2023-04-25T12:34:00.534Z,15.59
2023-04-25T12:35:01.549Z,26.85
2023-04-25T12:36:00.544Z,32.15
2023-04-25T12:37:00.539Z,42.95
2023-04-25T12:38:01.576Z,66.95
2023-04-25T12:39:00.631Z,87.02
2023-04-25T12:40:00.692Z,77.28
2023-04-25T12:41:00.749Z,80.20
2023-04-25T12:42:00.819Z,82.58
2023-04-25T12:43:00.861Z,82.52
2023-04-25T12:44:00.907Z,81.47
2023-04-25T12:45:01.947Z,86.59
2023-04-25T12:46:02.051Z,90.85
2023-04-25T12:47:01.276Z,95.19
2023-04-25T12:48:04.059Z,98.19
2023-04-25T12:49:11.776Z,102.46